IBB36VX GCXO-LPMA
Flight info
| Callsign | IBB36VX |
|---|---|
| Flight time | 1h 15m |
| Altitude | 16000 |
| Route | BIMBO DCT EKNOT |
| Aircraft | AT76/M-SDFGIRY/S |
Departure
| Time | 2026-04-25 12:51 |
|---|---|
| Airport | Tenerife Norte-Ciudad de La Laguna Airport (GCXO) |
Arrival
| Time | 2026-04-25 14:07 |
|---|---|
| Airport | Cristiano Ronaldo International Airport (LPMA) |
| Time | Latitude | Longitude | Altitude | Speed | Heading |
|---|---|---|---|---|---|
| 2026-04-25 12:42 | 28.48499 | -16.34182 | 2057 ft | 0 kts | 20° |
| 2026-04-25 12:45 | 28.48501 | -16.34181 | 2057 ft | 1 kts | 29° |
| 2026-04-25 12:46 | 28.48502 | -16.34179 | 2057 ft | 0 kts | 40° |
| 2026-04-25 12:46 | 28.48503 | -16.34177 | 2057 ft | 1 kts | 51° |
| 2026-04-25 12:46 | 28.48492 | -16.34163 | 2057 ft | 4 kts | 176° |
| 2026-04-25 12:46 | 28.48459 | -16.34188 | 2057 ft | 7 kts | 216° |
| 2026-04-25 12:47 | 28.48405 | -16.34200 | 2057 ft | 10 kts | 157° |
| 2026-04-25 12:47 | 28.48369 | -16.34114 | 2055 ft | 15 kts | 111° |
| 2026-04-25 12:47 | 28.48326 | -16.33985 | 2053 ft | 19 kts | 111° |
| 2026-04-25 12:47 | 28.48278 | -16.33839 | 2051 ft | 21 kts | 110° |
| 2026-04-25 12:48 | 28.48224 | -16.33675 | 2050 ft | 23 kts | 111° |
| 2026-04-25 12:48 | 28.48166 | -16.33503 | 2046 ft | 24 kts | 110° |
| 2026-04-25 12:48 | 28.48108 | -16.33323 | 2042 ft | 25 kts | 110° |
| 2026-04-25 12:48 | 28.48047 | -16.33140 | 2037 ft | 24 kts | 110° |
| 2026-04-25 12:49 | 28.47987 | -16.32957 | 2035 ft | 25 kts | 110° |
| 2026-04-25 12:49 | 28.47925 | -16.32775 | 2038 ft | 24 kts | 111° |
| 2026-04-25 12:49 | 28.47860 | -16.32598 | 2031 ft | 24 kts | 129° |
| 2026-04-25 12:49 | 28.47756 | -16.32545 | 2034 ft | 8 kts | 215° |
| 2026-04-25 12:50 | 28.47749 | -16.32593 | 2030 ft | 5 kts | 277° |
| 2026-04-25 12:50 | 28.47770 | -16.32669 | 2030 ft | 30 kts | 290° |
| 2026-04-25 12:50 | 28.47914 | -16.33096 | 2039 ft | 84 kts | 291° |
| 2026-04-25 12:50 | 28.48176 | -16.33867 | 2052 ft | 124 kts | 291° |
| 2026-04-25 12:51 | 28.48479 | -16.34830 | 2351 ft | 135 kts | 290° |
| 2026-04-25 12:51 | 28.48772 | -16.35900 | 2785 ft | 149 kts | 289° |
| 2026-04-25 12:51 | 28.49128 | -16.37088 | 3099 ft | 170 kts | 293° |
| 2026-04-25 12:51 | 28.49569 | -16.38411 | 3456 ft | 188 kts | 294° |
| 2026-04-25 12:52 | 28.50060 | -16.39864 | 3773 ft | 204 kts | 293° |
| 2026-04-25 12:52 | 28.50595 | -16.41416 | 4117 ft | 216 kts | 292° |
| 2026-04-25 12:52 | 28.51147 | -16.43052 | 4445 ft | 227 kts | 291° |
| 2026-04-25 12:52 | 28.51700 | -16.44763 | 4777 ft | 234 kts | 290° |
| 2026-04-25 12:53 | 28.52259 | -16.46531 | 5120 ft | 239 kts | 290° |
| 2026-04-25 12:53 | 28.52827 | -16.48324 | 5437 ft | 242 kts | 290° |
| 2026-04-25 12:53 | 28.53408 | -16.50139 | 5771 ft | 245 kts | 291° |
| 2026-04-25 12:53 | 28.54040 | -16.51936 | 6052 ft | 245 kts | 301° |
| 2026-04-25 12:54 | 28.55294 | -16.53187 | 6241 ft | 245 kts | 336° |
| 2026-04-25 12:54 | 28.56961 | -16.53362 | 6414 ft | 249 kts | 10° |
| 2026-04-25 12:54 | 28.58485 | -16.52399 | 6593 ft | 253 kts | 44° |
| 2026-04-25 12:54 | 28.59505 | -16.50809 | 6749 ft | 253 kts | 55° |
| 2026-04-25 12:55 | 28.60411 | -16.49082 | 6924 ft | 254 kts | 58° |
| 2026-04-25 12:55 | 28.60998 | -16.47895 | 7037 ft | 255 kts | 59° |
| 2026-04-25 12:55 | 28.62077 | -16.45519 | 7266 ft | 255 kts | 67° |
| 2026-04-25 12:55 | 28.62215 | -16.43515 | 7430 ft | 260 kts | 101° |
| 2026-04-25 12:56 | 28.61424 | -16.41673 | 7596 ft | 260 kts | 124° |
| 2026-04-25 12:56 | 28.60355 | -16.40006 | 7758 ft | 261 kts | 126° |
| 2026-04-25 12:56 | 28.59325 | -16.38313 | 7927 ft | 259 kts | 116° |
| 2026-04-25 12:56 | 28.59013 | -16.36326 | 8102 ft | 262 kts | 80° |
| 2026-04-25 12:57 | 28.59730 | -16.34435 | 8294 ft | 264 kts | 47° |
| 2026-04-25 12:57 | 28.61224 | -16.33266 | 8474 ft | 263 kts | 16° |
| 2026-04-25 12:57 | 28.63004 | -16.33178 | 8644 ft | 255 kts | 346° |
| 2026-04-25 12:57 | 28.64704 | -16.33697 | 8817 ft | 252 kts | 344° |
| 2026-04-25 12:58 | 28.66414 | -16.34113 | 8990 ft | 251 kts | 350° |
| 2026-04-25 12:58 | 28.68129 | -16.34337 | 9169 ft | 251 kts | 355° |
| 2026-04-25 12:58 | 28.69878 | -16.34319 | 9346 ft | 251 kts | 1° |
| 2026-04-25 12:58 | 28.71620 | -16.34115 | 9523 ft | 252 kts | 7° |
| 2026-04-25 12:59 | 28.73333 | -16.33666 | 9708 ft | 254 kts | 15° |
| 2026-04-25 12:59 | 28.75002 | -16.32989 | 9884 ft | 254 kts | 20° |
| 2026-04-25 12:59 | 28.76638 | -16.32215 | 10065 ft | 255 kts | 21° |
| 2026-04-25 12:59 | 28.78273 | -16.31425 | 10229 ft | 255 kts | 21° |
| 2026-04-25 13:00 | 28.79913 | -16.30643 | 10393 ft | 256 kts | 20° |
| 2026-04-25 13:00 | 28.80472 | -16.30385 | 10450 ft | 256 kts | 19° |
| 2026-04-25 13:00 | 28.83226 | -16.29156 | 10723 ft | 256 kts | 19° |
| 2026-04-25 13:00 | 28.84884 | -16.28417 | 10887 ft | 256 kts | 19° |
| 2026-04-25 13:01 | 28.86540 | -16.27671 | 11063 ft | 256 kts | 19° |
| 2026-04-25 13:01 | 28.88201 | -16.26929 | 11224 ft | 256 kts | 19° |
| 2026-04-25 13:01 | 28.89862 | -16.26183 | 11391 ft | 256 kts | 19° |
| 2026-04-25 13:01 | 28.91521 | -16.25438 | 11562 ft | 256 kts | 19° |
| 2026-04-25 13:02 | 28.93183 | -16.24693 | 11732 ft | 257 kts | 19° |
| 2026-04-25 13:02 | 28.94846 | -16.23946 | 11899 ft | 257 kts | 19° |
| 2026-04-25 13:02 | 28.96512 | -16.23197 | 12085 ft | 257 kts | 19° |
| 2026-04-25 13:02 | 28.98161 | -16.22457 | 12247 ft | 257 kts | 19° |
| 2026-04-25 13:03 | 28.99829 | -16.21708 | 12419 ft | 258 kts | 19° |
| 2026-04-25 13:03 | 29.01494 | -16.20959 | 12601 ft | 258 kts | 19° |
| 2026-04-25 13:03 | 29.03167 | -16.20207 | 12767 ft | 258 kts | 19° |
| 2026-04-25 13:03 | 29.04838 | -16.19455 | 12941 ft | 258 kts | 19° |
| 2026-04-25 13:04 | 29.06509 | -16.18703 | 13134 ft | 258 kts | 19° |
| 2026-04-25 13:04 | 29.08183 | -16.17950 | 13308 ft | 258 kts | 19° |
| 2026-04-25 13:04 | 29.09858 | -16.17197 | 13488 ft | 258 kts | 19° |
| 2026-04-25 13:04 | 29.11527 | -16.16446 | 13674 ft | 258 kts | 19° |
| 2026-04-25 13:05 | 29.13200 | -16.15692 | 13856 ft | 258 kts | 19° |
| 2026-04-25 13:05 | 29.14870 | -16.14941 | 14023 ft | 258 kts | 19° |
| 2026-04-25 13:05 | 29.16539 | -16.14186 | 14194 ft | 258 kts | 19° |
| 2026-04-25 13:05 | 29.18206 | -16.13434 | 14347 ft | 258 kts | 19° |
| 2026-04-25 13:06 | 29.19876 | -16.12680 | 14514 ft | 258 kts | 19° |
| 2026-04-25 13:06 | 29.21525 | -16.11937 | 14680 ft | 258 kts | 19° |
| 2026-04-25 13:06 | 29.23215 | -16.11173 | 14845 ft | 258 kts | 19° |
| 2026-04-25 13:06 | 29.24860 | -16.10431 | 15003 ft | 258 kts | 19° |
| 2026-04-25 13:07 | 29.26530 | -16.09676 | 15172 ft | 258 kts | 19° |
| 2026-04-25 13:07 | 29.28197 | -16.08923 | 15341 ft | 258 kts | 19° |
| 2026-04-25 13:07 | 29.29866 | -16.08168 | 15508 ft | 257 kts | 19° |
| 2026-04-25 13:07 | 29.31534 | -16.07414 | 15682 ft | 257 kts | 19° |
| 2026-04-25 13:08 | 29.33201 | -16.06661 | 15854 ft | 257 kts | 19° |
| 2026-04-25 13:08 | 29.34870 | -16.05906 | 15984 ft | 259 kts | 19° |
| 2026-04-25 13:08 | 29.36555 | -16.05143 | 16048 ft | 263 kts | 19° |
| 2026-04-25 13:08 | 29.38273 | -16.04367 | 16077 ft | 267 kts | 19° |
| 2026-04-25 13:09 | 29.40017 | -16.03575 | 16087 ft | 272 kts | 19° |
| 2026-04-25 13:09 | 29.41787 | -16.02774 | 16101 ft | 275 kts | 19° |
| 2026-04-25 13:09 | 29.43579 | -16.01967 | 16100 ft | 278 kts | 19° |
| 2026-04-25 13:09 | 29.45386 | -16.01147 | 16100 ft | 280 kts | 19° |
| 2026-04-25 13:10 | 29.47203 | -16.00317 | 16102 ft | 282 kts | 19° |
| 2026-04-25 13:10 | 29.49033 | -15.99485 | 16106 ft | 284 kts | 19° |
| 2026-04-25 13:10 | 29.50874 | -15.98649 | 16104 ft | 285 kts | 19° |
| 2026-04-25 13:10 | 29.52719 | -15.97810 | 16102 ft | 286 kts | 19° |
| 2026-04-25 13:11 | 29.54572 | -15.96969 | 16099 ft | 287 kts | 19° |
| 2026-04-25 13:11 | 29.56428 | -15.96124 | 16100 ft | 287 kts | 20° |
| 2026-04-25 13:11 | 29.58289 | -15.95279 | 16099 ft | 288 kts | 19° |
| 2026-04-25 13:11 | 29.60151 | -15.94431 | 16099 ft | 288 kts | 19° |
| 2026-04-25 13:12 | 29.62016 | -15.93582 | 16099 ft | 288 kts | 19° |
| 2026-04-25 13:12 | 29.63855 | -15.92745 | 16100 ft | 288 kts | 19° |
| 2026-04-25 13:12 | 29.65744 | -15.91883 | 16102 ft | 289 kts | 19° |
| 2026-04-25 13:12 | 29.66351 | -15.91607 | 16104 ft | 289 kts | 19° |
| 2026-04-25 13:13 | 29.69464 | -15.90187 | 16096 ft | 289 kts | 20° |
| 2026-04-25 13:13 | 29.71338 | -15.89333 | 16097 ft | 289 kts | 19° |
| 2026-04-25 13:13 | 29.73213 | -15.88478 | 16098 ft | 289 kts | 20° |
| 2026-04-25 13:13 | 29.75086 | -15.87622 | 16098 ft | 289 kts | 19° |
| 2026-04-25 13:14 | 29.76957 | -15.86768 | 16103 ft | 289 kts | 20° |
| 2026-04-25 13:14 | 29.78828 | -15.85911 | 16102 ft | 289 kts | 19° |
| 2026-04-25 13:14 | 29.80673 | -15.85070 | 16102 ft | 289 kts | 20° |
| 2026-04-25 13:14 | 29.82542 | -15.84213 | 16102 ft | 289 kts | 19° |
| 2026-04-25 13:15 | 29.84412 | -15.83362 | 16105 ft | 289 kts | 19° |
| 2026-04-25 13:15 | 29.86281 | -15.82506 | 16105 ft | 289 kts | 20° |
| 2026-04-25 13:15 | 29.88152 | -15.81648 | 16105 ft | 289 kts | 19° |
| 2026-04-25 13:15 | 29.90021 | -15.80791 | 16104 ft | 289 kts | 20° |
| 2026-04-25 13:16 | 29.91892 | -15.79935 | 16102 ft | 289 kts | 19° |
| 2026-04-25 13:16 | 29.93758 | -15.79081 | 16102 ft | 289 kts | 20° |
| 2026-04-25 13:16 | 29.95630 | -15.78220 | 16102 ft | 289 kts | 20° |
| 2026-04-25 13:16 | 29.97497 | -15.77366 | 16102 ft | 288 kts | 19° |
| 2026-04-25 13:17 | 29.99421 | -15.76902 | 16104 ft | 281 kts | 357° |
| 2026-04-25 13:17 | 30.01351 | -15.77176 | 16102 ft | 280 kts | 348° |
| 2026-04-25 13:17 | 30.03260 | -15.77636 | 16100 ft | 280 kts | 347° |
| 2026-04-25 13:17 | 30.05170 | -15.78096 | 16101 ft | 281 kts | 348° |
| 2026-04-25 13:18 | 30.07103 | -15.78483 | 16102 ft | 282 kts | 350° |
| 2026-04-25 13:18 | 30.09048 | -15.78810 | 16104 ft | 282 kts | 351° |
| 2026-04-25 13:18 | 30.10999 | -15.79136 | 16102 ft | 283 kts | 351° |
| 2026-04-25 13:18 | 30.12920 | -15.79460 | 16101 ft | 283 kts | 351° |
| 2026-04-25 13:19 | 30.14871 | -15.79794 | 16105 ft | 283 kts | 350° |
| 2026-04-25 13:19 | 30.16826 | -15.80144 | 16104 ft | 283 kts | 350° |
| 2026-04-25 13:19 | 30.18777 | -15.80497 | 16105 ft | 283 kts | 350° |
| 2026-04-25 13:19 | 30.19433 | -15.80617 | 16105 ft | 283 kts | 350° |
| 2026-04-25 13:20 | 30.22673 | -15.81208 | 16109 ft | 284 kts | 350° |
| 2026-04-25 13:20 | 30.23966 | -15.81444 | 16107 ft | 284 kts | 350° |
| 2026-04-25 13:20 | 30.25920 | -15.81801 | 16107 ft | 284 kts | 350° |
| 2026-04-25 13:20 | 30.27875 | -15.82155 | 16110 ft | 284 kts | 350° |
| 2026-04-25 13:21 | 30.29828 | -15.82513 | 16107 ft | 284 kts | 350° |
| 2026-04-25 13:21 | 30.31779 | -15.82872 | 16105 ft | 283 kts | 349° |
| 2026-04-25 13:21 | 30.33730 | -15.83226 | 16110 ft | 283 kts | 350° |
| 2026-04-25 13:21 | 30.35676 | -15.83580 | 16110 ft | 283 kts | 350° |
| 2026-04-25 13:22 | 30.37621 | -15.83939 | 16109 ft | 283 kts | 350° |
| 2026-04-25 13:22 | 30.39547 | -15.84293 | 16108 ft | 283 kts | 350° |
| 2026-04-25 13:22 | 30.41493 | -15.84645 | 16107 ft | 283 kts | 350° |
| 2026-04-25 13:23 | 30.45377 | -15.85355 | 16110 ft | 283 kts | 350° |
| 2026-04-25 13:23 | 30.47321 | -15.85711 | 16110 ft | 282 kts | 350° |
| 2026-04-25 13:23 | 30.49265 | -15.86066 | 16111 ft | 282 kts | 350° |
| 2026-04-25 13:23 | 30.51204 | -15.86425 | 16111 ft | 282 kts | 350° |
| 2026-04-25 13:24 | 30.53144 | -15.86784 | 16113 ft | 283 kts | 350° |
| 2026-04-25 13:24 | 30.55089 | -15.87137 | 16116 ft | 282 kts | 350° |
| 2026-04-25 13:24 | 30.57028 | -15.87492 | 16115 ft | 282 kts | 350° |
| 2026-04-25 13:24 | 30.58966 | -15.87851 | 16113 ft | 282 kts | 350° |
| 2026-04-25 13:25 | 30.60907 | -15.88207 | 16114 ft | 282 kts | 350° |
| 2026-04-25 13:25 | 30.62848 | -15.88559 | 16111 ft | 282 kts | 350° |
| 2026-04-25 13:25 | 30.64785 | -15.88917 | 16116 ft | 282 kts | 350° |
| 2026-04-25 13:25 | 30.66722 | -15.89276 | 16117 ft | 282 kts | 350° |
| 2026-04-25 13:26 | 30.68659 | -15.89629 | 16114 ft | 282 kts | 350° |
| 2026-04-25 13:26 | 30.70573 | -15.89980 | 16113 ft | 281 kts | 350° |
| 2026-04-25 13:26 | 30.72506 | -15.90340 | 16113 ft | 281 kts | 350° |
| 2026-04-25 13:26 | 30.74443 | -15.90698 | 16115 ft | 281 kts | 350° |
| 2026-04-25 13:27 | 30.76379 | -15.91051 | 16117 ft | 281 kts | 350° |
| 2026-04-25 13:27 | 30.78316 | -15.91407 | 16116 ft | 281 kts | 350° |
| 2026-04-25 13:27 | 30.80250 | -15.91765 | 16116 ft | 281 kts | 350° |
| 2026-04-25 13:27 | 30.82192 | -15.92122 | 16116 ft | 281 kts | 350° |
| 2026-04-25 13:28 | 30.84101 | -15.92472 | 16115 ft | 281 kts | 349° |
| 2026-04-25 13:28 | 30.85405 | -15.92716 | 16119 ft | 281 kts | 349° |
| 2026-04-25 13:28 | 30.87971 | -15.93195 | 16036 ft | 284 kts | 350° |
| 2026-04-25 13:28 | 30.89910 | -15.93550 | 15829 ft | 279 kts | 350° |
| 2026-04-25 13:29 | 30.91823 | -15.93901 | 15527 ft | 277 kts | 350° |
| 2026-04-25 13:29 | 30.93723 | -15.94254 | 15235 ft | 276 kts | 350° |
| 2026-04-25 13:29 | 30.95615 | -15.94605 | 14947 ft | 275 kts | 351° |
| 2026-04-25 13:30 | 30.99381 | -15.95299 | 14387 ft | 273 kts | 351° |
| 2026-04-25 13:30 | 31.01256 | -15.95647 | 14108 ft | 272 kts | 351° |
| 2026-04-25 13:30 | 31.03126 | -15.95993 | 13818 ft | 272 kts | 351° |
| 2026-04-25 13:31 | 31.06853 | -15.96682 | 13200 ft | 270 kts | 351° |
| 2026-04-25 13:31 | 31.08710 | -15.97033 | 12893 ft | 270 kts | 351° |
| 2026-04-25 13:31 | 31.10538 | -15.97373 | 12594 ft | 269 kts | 351° |
| 2026-04-25 13:31 | 31.12389 | -15.97712 | 12293 ft | 268 kts | 351° |
| 2026-04-25 13:32 | 31.14237 | -15.98054 | 11993 ft | 268 kts | 351° |
| 2026-04-25 13:32 | 31.16076 | -15.98395 | 11698 ft | 267 kts | 351° |
| 2026-04-25 13:32 | 31.17909 | -15.98734 | 11407 ft | 267 kts | 351° |
| 2026-04-25 13:32 | 31.19740 | -15.99076 | 11116 ft | 266 kts | 351° |
| 2026-04-25 13:33 | 31.21564 | -15.99415 | 10834 ft | 265 kts | 351° |
| 2026-04-25 13:33 | 31.23389 | -15.99753 | 10543 ft | 265 kts | 351° |
| 2026-04-25 13:33 | 31.25205 | -16.00095 | 10261 ft | 263 kts | 351° |
| 2026-04-25 13:33 | 31.26394 | -16.00317 | 10076 ft | 261 kts | 351° |
| 2026-04-25 13:34 | 31.28792 | -16.00761 | 9663 ft | 259 kts | 351° |
| 2026-04-25 13:34 | 31.30569 | -16.01092 | 9353 ft | 258 kts | 351° |
| 2026-04-25 13:34 | 31.32312 | -16.01416 | 9048 ft | 256 kts | 351° |
| 2026-04-25 13:34 | 31.34071 | -16.01747 | 8745 ft | 255 kts | 351° |
| 2026-04-25 13:35 | 31.35821 | -16.02080 | 8442 ft | 255 kts | 351° |
| 2026-04-25 13:35 | 31.37572 | -16.02406 | 8141 ft | 254 kts | 351° |
| 2026-04-25 13:35 | 31.39320 | -16.02728 | 7848 ft | 253 kts | 351° |
| 2026-04-25 13:35 | 31.41063 | -16.03047 | 7554 ft | 253 kts | 351° |
| 2026-04-25 13:36 | 31.42797 | -16.03387 | 7262 ft | 252 kts | 348° |
| 2026-04-25 13:36 | 31.44486 | -16.03921 | 6977 ft | 252 kts | 343° |
| 2026-04-25 13:36 | 31.46150 | -16.04573 | 6692 ft | 251 kts | 341° |
| 2026-04-25 13:36 | 31.47806 | -16.05234 | 6399 ft | 252 kts | 341° |
| 2026-04-25 13:37 | 31.49483 | -16.05867 | 6084 ft | 253 kts | 343° |
| 2026-04-25 13:37 | 31.51170 | -16.06460 | 5776 ft | 253 kts | 344° |
| 2026-04-25 13:37 | 31.52840 | -16.07023 | 5477 ft | 253 kts | 344° |
| 2026-04-25 13:37 | 31.54531 | -16.07601 | 5178 ft | 253 kts | 343° |
| 2026-04-25 13:38 | 31.56222 | -16.08185 | 4880 ft | 254 kts | 343° |
| 2026-04-25 13:38 | 31.57914 | -16.08775 | 4568 ft | 254 kts | 344° |
| 2026-04-25 13:38 | 31.59602 | -16.09365 | 4301 ft | 251 kts | 345° |
| 2026-04-25 13:38 | 31.61258 | -16.09946 | 4102 ft | 246 kts | 346° |
| 2026-04-25 13:39 | 31.62889 | -16.10498 | 3895 ft | 242 kts | 346° |
| 2026-04-25 13:39 | 31.64505 | -16.11042 | 3678 ft | 241 kts | 346° |
| 2026-04-25 13:39 | 31.66108 | -16.11584 | 3498 ft | 239 kts | 346° |
| 2026-04-25 13:39 | 31.67701 | -16.12125 | 3304 ft | 237 kts | 346° |
| 2026-04-25 13:40 | 31.69264 | -16.12658 | 3214 ft | 231 kts | 346° |
| 2026-04-25 13:40 | 31.70788 | -16.13175 | 3168 ft | 225 kts | 346° |
| 2026-04-25 13:40 | 31.72274 | -16.13689 | 3144 ft | 219 kts | 346° |
| 2026-04-25 13:40 | 31.73719 | -16.14194 | 3139 ft | 214 kts | 346° |
| 2026-04-25 13:41 | 31.75135 | -16.14688 | 3130 ft | 210 kts | 346° |
| 2026-04-25 13:41 | 31.76527 | -16.15169 | 3134 ft | 207 kts | 346° |
| 2026-04-25 13:41 | 31.77892 | -16.15642 | 3105 ft | 207 kts | 346° |
| 2026-04-25 13:41 | 31.79282 | -16.16124 | 3035 ft | 208 kts | 346° |
| 2026-04-25 13:42 | 31.80669 | -16.16608 | 3012 ft | 207 kts | 346° |
| 2026-04-25 13:42 | 31.82044 | -16.17090 | 3005 ft | 206 kts | 345° |
| 2026-04-25 13:42 | 31.83415 | -16.17563 | 2988 ft | 205 kts | 346° |
| 2026-04-25 13:42 | 31.84775 | -16.18036 | 2977 ft | 203 kts | 346° |
| 2026-04-25 13:43 | 31.86123 | -16.18512 | 2981 ft | 201 kts | 346° |
| 2026-04-25 13:43 | 31.87457 | -16.18991 | 2995 ft | 200 kts | 346° |
| 2026-04-25 13:43 | 31.88794 | -16.19472 | 2991 ft | 200 kts | 346° |
| 2026-04-25 13:43 | 31.90128 | -16.19938 | 2986 ft | 200 kts | 346° |
| 2026-04-25 13:44 | 31.91458 | -16.20405 | 2999 ft | 199 kts | 346° |
| 2026-04-25 13:44 | 31.92787 | -16.20872 | 3001 ft | 199 kts | 346° |
| 2026-04-25 13:44 | 31.94118 | -16.21337 | 2984 ft | 199 kts | 346° |
| 2026-04-25 13:44 | 31.95443 | -16.21800 | 3004 ft | 199 kts | 347° |
| 2026-04-25 13:45 | 31.96772 | -16.22262 | 2999 ft | 200 kts | 347° |
| 2026-04-25 13:45 | 31.98105 | -16.22724 | 2986 ft | 200 kts | 346° |
| 2026-04-25 13:45 | 31.99437 | -16.23179 | 2987 ft | 199 kts | 347° |
| 2026-04-25 13:45 | 32.00761 | -16.23632 | 3002 ft | 198 kts | 346° |
| 2026-04-25 13:46 | 32.02064 | -16.24079 | 3005 ft | 198 kts | 346° |
| 2026-04-25 13:46 | 32.03386 | -16.24536 | 2988 ft | 198 kts | 346° |
| 2026-04-25 13:46 | 32.04709 | -16.25006 | 3000 ft | 198 kts | 345° |
| 2026-04-25 13:46 | 32.06031 | -16.25481 | 3005 ft | 199 kts | 346° |
| 2026-04-25 13:47 | 32.07353 | -16.25954 | 2994 ft | 199 kts | 346° |
| 2026-04-25 13:47 | 32.08681 | -16.26426 | 3006 ft | 199 kts | 346° |
| 2026-04-25 13:47 | 32.10012 | -16.26897 | 2998 ft | 199 kts | 346° |
| 2026-04-25 13:47 | 32.11344 | -16.27361 | 2986 ft | 199 kts | 345° |
| 2026-04-25 13:48 | 32.12678 | -16.27820 | 2981 ft | 198 kts | 346° |
| 2026-04-25 13:48 | 32.13982 | -16.28283 | 3003 ft | 198 kts | 346° |
| 2026-04-25 13:48 | 32.15306 | -16.28752 | 2995 ft | 198 kts | 346° |
| 2026-04-25 13:48 | 32.16624 | -16.29209 | 3001 ft | 197 kts | 346° |
| 2026-04-25 13:49 | 32.17945 | -16.29667 | 3003 ft | 198 kts | 346° |
| 2026-04-25 13:49 | 32.19269 | -16.30126 | 3000 ft | 198 kts | 346° |
| 2026-04-25 13:49 | 32.20591 | -16.30579 | 3003 ft | 198 kts | 346° |
| 2026-04-25 13:49 | 32.21914 | -16.31028 | 3001 ft | 198 kts | 346° |
| 2026-04-25 13:50 | 32.23239 | -16.31465 | 2993 ft | 198 kts | 347° |
| 2026-04-25 13:50 | 32.24565 | -16.31903 | 2994 ft | 198 kts | 346° |
| 2026-04-25 13:50 | 32.25894 | -16.32338 | 2997 ft | 198 kts | 347° |
| 2026-04-25 13:50 | 32.27221 | -16.32770 | 3004 ft | 198 kts | 347° |
| 2026-04-25 13:51 | 32.28535 | -16.33201 | 2996 ft | 198 kts | 346° |
| 2026-04-25 13:51 | 32.29859 | -16.33637 | 2993 ft | 197 kts | 346° |
| 2026-04-25 13:51 | 32.31178 | -16.34079 | 3001 ft | 197 kts | 346° |
| 2026-04-25 13:51 | 32.32522 | -16.34519 | 3012 ft | 206 kts | 346° |
| 2026-04-25 13:52 | 32.33944 | -16.34987 | 3007 ft | 217 kts | 346° |
| 2026-04-25 13:52 | 32.35421 | -16.35479 | 3004 ft | 224 kts | 346° |
| 2026-04-25 13:52 | 32.36938 | -16.35979 | 3002 ft | 228 kts | 347° |
| 2026-04-25 13:52 | 32.38477 | -16.36487 | 3006 ft | 231 kts | 345° |
| 2026-04-25 13:53 | 32.40035 | -16.37025 | 3003 ft | 234 kts | 345° |
| 2026-04-25 13:53 | 32.41607 | -16.37571 | 2997 ft | 236 kts | 345° |
| 2026-04-25 13:53 | 32.43186 | -16.38123 | 3007 ft | 237 kts | 345° |
| 2026-04-25 13:53 | 32.44772 | -16.38670 | 3007 ft | 238 kts | 345° |
| 2026-04-25 13:54 | 32.46374 | -16.39211 | 3007 ft | 240 kts | 346° |
| 2026-04-25 13:54 | 32.47984 | -16.39755 | 3004 ft | 240 kts | 346° |
| 2026-04-25 13:54 | 32.49572 | -16.40288 | 3010 ft | 241 kts | 346° |
| 2026-04-25 13:54 | 32.51192 | -16.40830 | 3009 ft | 242 kts | 346° |
| 2026-04-25 13:55 | 32.52816 | -16.41374 | 2996 ft | 243 kts | 346° |
| 2026-04-25 13:55 | 32.54441 | -16.41922 | 3005 ft | 242 kts | 346° |
| 2026-04-25 13:55 | 32.56061 | -16.42468 | 3004 ft | 242 kts | 346° |
| 2026-04-25 13:55 | 32.57682 | -16.43013 | 3001 ft | 242 kts | 346° |
| 2026-04-25 13:56 | 32.59303 | -16.43558 | 3003 ft | 242 kts | 345° |
| 2026-04-25 13:56 | 32.60911 | -16.44092 | 3008 ft | 243 kts | 346° |
| 2026-04-25 13:56 | 32.62540 | -16.44640 | 2998 ft | 244 kts | 346° |
| 2026-04-25 13:56 | 32.64166 | -16.45194 | 2998 ft | 243 kts | 346° |
| 2026-04-25 13:57 | 32.65802 | -16.45744 | 2993 ft | 244 kts | 346° |
| 2026-04-25 13:57 | 32.66354 | -16.45929 | 2998 ft | 244 kts | 345° |
| 2026-04-25 13:57 | 32.69068 | -16.46841 | 2990 ft | 244 kts | 345° |
| 2026-04-25 13:57 | 32.70699 | -16.47393 | 3004 ft | 243 kts | 345° |
| 2026-04-25 13:58 | 32.72327 | -16.47948 | 2995 ft | 243 kts | 345° |
| 2026-04-25 13:58 | 32.73951 | -16.48496 | 3001 ft | 243 kts | 345° |
| 2026-04-25 13:58 | 32.75575 | -16.49044 | 2998 ft | 242 kts | 345° |
| 2026-04-25 13:58 | 32.77197 | -16.49593 | 2986 ft | 242 kts | 345° |
| 2026-04-25 13:59 | 32.78795 | -16.50184 | 2999 ft | 238 kts | 337° |
| 2026-04-25 13:59 | 32.80064 | -16.51431 | 3003 ft | 239 kts | 313° |
| 2026-04-25 13:59 | 32.81107 | -16.52982 | 3000 ft | 241 kts | 310° |
| 2026-04-25 13:59 | 32.82137 | -16.54562 | 2999 ft | 243 kts | 310° |
| 2026-04-25 14:00 | 32.83195 | -16.56132 | 2996 ft | 244 kts | 312° |
| 2026-04-25 14:00 | 32.84287 | -16.57646 | 2994 ft | 244 kts | 313° |
| 2026-04-25 14:00 | 32.85154 | -16.59344 | 2992 ft | 242 kts | 288° |
| 2026-04-25 14:00 | 32.85271 | -16.61310 | 2989 ft | 235 kts | 271° |
| 2026-04-25 14:01 | 32.84855 | -16.63154 | 3002 ft | 234 kts | 239° |
| 2026-04-25 14:01 | 32.83813 | -16.64629 | 2997 ft | 233 kts | 227° |
| 2026-04-25 14:01 | 32.82593 | -16.65897 | 2991 ft | 234 kts | 218° |
| 2026-04-25 14:01 | 32.81207 | -16.66934 | 2921 ft | 239 kts | 209° |
| 2026-04-25 14:02 | 32.79696 | -16.67814 | 2714 ft | 244 kts | 205° |
| 2026-04-25 14:02 | 32.78133 | -16.68634 | 2503 ft | 247 kts | 205° |
| 2026-04-25 14:02 | 32.76551 | -16.69472 | 2305 ft | 250 kts | 205° |
| 2026-04-25 14:02 | 32.76019 | -16.69761 | 2229 ft | 250 kts | 205° |
| 2026-04-25 14:03 | 32.73458 | -16.71226 | 2060 ft | 239 kts | 207° |
| 2026-04-25 14:03 | 32.72000 | -16.72083 | 1939 ft | 226 kts | 207° |
| 2026-04-25 14:03 | 32.70667 | -16.72862 | 1772 ft | 199 kts | 206° |
| 2026-04-25 14:03 | 32.69510 | -16.73508 | 1666 ft | 174 kts | 201° |
| 2026-04-25 14:04 | 32.68460 | -16.74019 | 1676 ft | 145 kts | 203° |
| 2026-04-25 14:04 | 32.67596 | -16.74463 | 1562 ft | 131 kts | 203° |
| 2026-04-25 14:04 | 32.66774 | -16.74865 | 1525 ft | 122 kts | 202° |
| 2026-04-25 14:04 | 32.65969 | -16.75266 | 1470 ft | 121 kts | 206° |
| 2026-04-25 14:05 | 32.65425 | -16.75922 | 1281 ft | 112 kts | 261° |
| 2026-04-25 14:05 | 32.65568 | -16.76865 | 998 ft | 114 kts | 296° |
| 2026-04-25 14:05 | 32.65972 | -16.77774 | 796 ft | 129 kts | 305° |
| 2026-04-25 14:05 | 32.66535 | -16.78606 | 757 ft | 129 kts | 320° |
| 2026-04-25 14:06 | 32.67244 | -16.79209 | 627 ft | 127 kts | 337° |
| 2026-04-25 14:06 | 32.68109 | -16.79216 | 347 ft | 128 kts | 22° |
| 2026-04-25 14:06 | 32.68588 | -16.78845 | 301 ft | 117 kts | 39° |
| 2026-04-25 14:06 | 32.69159 | -16.78172 | 179 ft | 112 kts | 45° |
| 2026-04-25 14:07 | 32.69629 | -16.77619 | 173 ft | 46 kts | 43° |
| 2026-04-25 14:07 | 32.69763 | -16.77474 | 173 ft | 23 kts | 43° |
| 2026-04-25 14:07 | 32.69877 | -16.77342 | 173 ft | 23 kts | 45° |
| 2026-04-25 14:07 | 32.69953 | -16.77217 | 173 ft | 11 kts | 103° |
| 2026-04-25 14:08 | 32.69874 | -16.77173 | 173 ft | 17 kts | 188° |
| 2026-04-25 14:08 | 32.69763 | -16.77271 | 173 ft | 23 kts | 226° |
| 2026-04-25 14:08 | 32.69642 | -16.77420 | 173 ft | 25 kts | 226° |
| 2026-04-25 14:08 | 32.69555 | -16.77484 | 173 ft | 11 kts | 144° |
| 2026-04-25 14:09 | 32.69510 | -16.77435 | 173 ft | 0 kts | 139° |